Time;durP1;ratioP1;P1;durP2;ratioP2;P2;SDS_P1;SDS_P2;PMS_P1;PMS_P2;Temp;Humidity;BMP_temperature;BMP_pressure;BME280_temperature;BME280_humidity;BME280_pressure;Samples;Min_cycle;Max_cycle;Signal;HPM_P1;HPM_P2
2023/03/10 00:01:37;;;;;;;88.50;70.80;;;;;;;1.79;78.02;98637.54;113103;1239;21992;-79
2023/03/10 00:04:06;;;;;;;91.60;70.40;;;;;;;1.82;78.17;98635.23;112746;1239;21918;-80
2023/03/10 00:06:38;;;;;;;83.60;69.70;;;;;;;1.84;78.17;98630.55;113126;1239;22169;-80
2023/03/10 00:09:11;;;;;;;87.70;69.00;;;;;;;1.87;78.23;98624.80;113060;1239;21950;-79
2023/03/10 00:11:48;;;;;;;87.60;68.10;;;;;;;1.89;78.27;98624.89;112707;1234;22152;-78
2023/03/10 00:14:19;;;;;;;89.40;73.90;;;;;;;1.87;78.21;98613.13;112866;1239;22420;-78
2023/03/10 00:16:51;;;;;;;86.10;69.20;;;;;;;1.79;78.03;98613.01;112262;1239;21971;-79
2023/03/10 00:19:25;;;;;;;81.20;67.50;;;;;;;1.75;78.12;98608.15;112571;1239;21958;-78
2023/03/10 00:22:01;;;;;;;83.20;70.00;;;;;;;1.71;78.19;98598.34;113031;1239;22021;-78
2023/03/10 00:24:33;;;;;;;78.20;63.20;;;;;;;1.68;78.30;98600.46;112921;1239;22604;-80
2023/03/10 00:27:05;;;;;;;70.80;59.00;;;;;;;1.66;78.39;98597.45;112943;1239;21953;-79
2023/03/10 00:29:39;;;;;;;73.30;60.90;;;;;;;1.62;78.42;98592.26;112489;1239;22008;-78
2023/03/10 00:32:15;;;;;;;65.00;57.30;;;;;;;1.57;78.51;98592.58;112981;1240;23072;-79
2023/03/10 00:34:44;;;;;;;68.70;56.20;;;;;;;1.54;78.56;98590.26;112479;1240;22011;-79
2023/03/10 00:37:15;;;;;;;69.90;60.30;;;;;;;1.51;78.63;98586.23;112461;1240;21953;-79
2023/03/10 00:39:44;;;;;;;69.40;57.70;;;;;;;1.50;78.75;98587.64;112557;1240;23598;-80
2023/03/10 00:42:14;;;;;;;72.70;59.30;;;;;;;1.48;78.89;98584.27;113128;1239;21998;-80
2023/03/10 00:44:55;;;;;;;71.90;56.80;;;;;;;1.43;78.93;98578.05;113140;1238;23741;-79
2023/03/10 00:47:26;;;;;;;78.90;61.60;;;;;;;1.40;79.19;98568.90;113396;1239;23124;-80
2023/03/10 00:49:56;;;;;;;82.80;60.10;;;;;;;1.41;79.23;98568.02;112285;1245;23725;-79
2023/03/10 00:52:27;;;;;;;74.30;56.90;;;;;;;1.44;79.19;98565.18;112574;1245;21951;-79
2023/03/10 00:55:06;;;;;;;73.10;59.10;;;;;;;1.46;79.28;98556.38;112178;1245;21950;-80
2023/03/10 00:57:37;;;;;;;68.00;58.30;;;;;;;1.50;79.23;98547.69;111561;1249;21988;-80
2023/03/10 01:00:14;;;;;;;68.90;57.20;;;;;;;1.51;79.19;98547.66;111839;1244;21969;-79
2023/03/10 01:02:43;;;;;;;65.10;55.50;;;;;;;1.49;79.34;98538.80;111823;1248;21972;-80
2023/03/10 01:05:15;;;;;;;;;;;;;;;1.47;79.27;98528.74;111566;1248;21953;-80
2023/03/10 01:07:44;;;;;;;64.40;52.20;;;;;;;1.41;79.44;98526.36;111389;1254;21966;-80
2023/03/10 01:10:15;;;;;;;67.50;54.10;;;;;;;1.40;79.69;98520.05;111431;1254;23751;-80
2023/03/10 01:12:43;;;;;;;69.10;57.20;;;;;;;1.40;79.77;98513.02;111781;1254;21974;-78
2023/03/10 01:15:15;;;;;;;66.40;56.30;;;;;;;1.41;79.74;98509.91;111839;1246;22456;-79
2023/03/10 01:17:46;;;;;;;69.90;59.30;;;;;;;1.42;79.69;98506.45;112271;1246;23571;-80
2023/03/10 01:20:16;;;;;;;65.70;56.90;;;;;;;1.43;79.89;98499.22;112580;1239;21951;-79
2023/03/10 01:22:45;;;;;;;66.00;54.90;;;;;;;1.41;79.88;98503.05;112845;1239;21964;-78
2023/03/10 01:25:15;;;;;;;70.50;57.20;;;;;;;1.41;79.87;98507.52;112952;1233;21959;-80
2023/03/10 01:27:43;;;;;;;65.20;55.80;;;;;;;1.43;80.02;98504.36;113853;1233;21959;-80
2023/03/10 01:30:15;;;;;;;69.20;56.00;;;;;;;1.46;80.01;98499.13;113604;1233;21968;-80
2023/03/10 01:32:48;;;;;;;68.60;58.10;;;;;;;1.49;79.99;98494.08;112836;1238;23401;-79
2023/03/10 01:35:17;;;;;;;64.90;55.50;;;;;;;1.54;80.06;98492.17;112956;1238;23122;-79
2023/03/10 01:37:49;;;;;;;69.80;56.80;;;;;;;1.60;80.09;98484.46;112871;1238;21951;-79
2023/03/10 01:40:21;;;;;;;69.50;56.30;;;;;;;1.61;80.09;98482.56;113222;1238;21966;-79
2023/03/10 01:42:50;;;;;;;66.30;57.10;;;;;;;1.61;80.13;98479.27;113372;1238;21947;-79
2023/03/10 01:45:21;;;;;;;63.30;54.30;;;;;;;1.63;80.10;98473.56;113122;1238;23003;-78
2023/03/10 01:47:52;;;;;;;68.20;56.60;;;;;;;1.66;80.15;98463.17;113136;1238;22045;-80
2023/03/10 01:50:22;;;;;;;71.50;57.90;;;;;;;1.69;80.12;98460.52;113249;1232;22956;-78
2023/03/10 01:52:57;;;;;;;68.40;56.20;;;;;;;1.72;80.20;98453.73;113542;1232;23674;-77
2023/03/10 01:55:39;;;;;;;68.00;58.40;;;;;;;1.78;80.22;98448.76;113541;1232;22011;-79
2023/03/10 01:58:16;;;;;;;69.60;58.10;;;;;;;1.79;80.32;98433.46;113387;1232;23699;-78
2023/03/10 02:00:53;;;;;;;67.10;56.00;;;;;;;1.81;80.34;98427.88;113248;1232;23682;-78
2023/03/10 02:03:33;;;;;;;64.70;56.20;;;;;;;1.83;80.30;98420.45;113352;1232;23675;-79
2023/03/10 02:06:10;;;;;;;73.50;58.80;;;;;;;1.84;80.34;98427.80;113770;1233;22082;-79
2023/03/10 02:09:01;;;;;;;70.60;57.60;;;;;;;1.86;80.39;98431.00;113279;1238;21963;-80
2023/03/10 02:11:29;;;;;;;67.10;57.30;;;;;;;1.89;80.42;98419.06;112931;1239;21970;-79
2023/03/10 02:14:03;;;;;;;67.10;59.10;;;;;;;1.91;80.51;98411.77;112167;1245;21953;-79
2023/03/10 02:16:36;;;;;;;64.80;57.80;;;;;;;1.92;80.55;98407.80;112062;1245;23028;-79
2023/03/10 02:19:11;;;;;;;72.60;57.10;;;;;;;1.93;80.52;98395.91;112457;1245;23700;-79
2023/03/10 02:22:11;;;;;;;66.60;57.70;;;;;;;1.96;80.53;98398.23;112261;1245;21981;-80
2023/03/10 02:25:57;;;;;;;71.20;57.60;;;;;;;2.00;80.54;98400.33;112292;1245;22156;-80
2023/03/10 02:28:34;;;;;;;67.90;56.10;;;;;;;2.00;80.72;98402.58;111180;1255;21981;-81
2023/03/10 02:31:09;;;;;;;66.90;56.80;;;;;;;2.04;80.70;98396.75;111208;1251;23641;-79
2023/03/10 02:33:43;;;;;;;65.30;56.60;;;;;;;2.08;80.55;98388.89;111693;1251;22030;-79
2023/03/10 02:36:23;;;;;;;67.40;56.90;;;;;;;2.12;80.65;98384.12;111678;1241;23130;-80
2023/03/10 02:39:03;;;;;;;69.80;61.10;;;;;;;2.15;80.68;98376.65;111243;1254;23598;-81
2023/03/10 02:41:41;;;;;;;67.90;60.10;;;;;;;2.17;80.78;98372.45;111129;1254;21988;-79
2023/03/10 02:44:23;;;;;;;66.60;59.10;;;;;;;2.20;80.71;98366.52;111231;1254;21966;-79
2023/03/10 02:46:51;;;;;;;69.60;62.10;;;;;;;2.23;80.69;98362.13;111689;1249;21973;-79
2023/03/10 02:49:26;;;;;;;70.20;62.20;;;;;;;2.25;80.66;98366.31;111660;1249;24408;-80
2023/03/10 02:51:58;;;;;;;68.70;61.30;;;;;;;2.29;80.72;98363.10;111286;1254;21967;-79
2023/03/10 02:54:27;;;;;;;;;;;;;;;2.32;80.81;98355.10;111246;1255;21978;-79
2023/03/10 02:56:59;;;;;;;68.50;60.10;;;;;;;2.27;80.89;98355.45;111222;1252;21984;-79
2023/03/10 02:59:28;;;;;;;68.10;60.80;;;;;;;2.29;80.97;98350.05;111324;1252;21981;-80
2023/03/10 03:01:57;;;;;;;68.80;61.30;;;;;;;2.33;81.07;98346.83;111282;1248;21977;-79
2023/03/10 03:04:30;;;;;;;72.90;64.20;;;;;;;2.37;81.03;98341.04;110660;1244;2071767;-80
2023/03/10 03:07:06;;;;;;;74.20;66.30;;;;;;;2.38;81.05;98339.27;112343;1244;21978;-81
2023/03/10 03:09:42;;;;;;;75.20;66.50;;;;;;;2.42;81.05;98340.15;112384;1239;21956;-80
2023/03/10 03:12:20;;;;;;;75.30;67.20;;;;;;;2.46;81.09;98342.58;113002;1239;22954;-80
2023/03/10 03:14:52;;;;;;;72.70;64.80;;;;;;;2.50;81.24;98328.70;113073;1239;22006;-80
2023/03/10 03:17:39;;;;;;;72.10;63.80;;;;;;;2.53;81.18;98323.09;112555;1242;22936;-81
2023/03/10 03:20:19;;;;;;;73.70;63.80;;;;;;;2.57;81.24;98318.14;112309;1245;22008;-80
2023/03/10 03:22:49;;;;;;;69.60;61.90;;;;;;;2.59;81.10;98306.36;112293;1241;23006;-81
2023/03/10 03:25:23;;;;;;;73.70;64.60;;;;;;;2.62;81.07;98301.98;113002;1239;22436;-80
2023/03/10 03:27:55;;;;;;;70.60;63.20;;;;;;;2.65;81.22;98302.39;112530;1242;21944;-79
2023/03/10 03:30:27;;;;;;;70.90;63.10;;;;;;;2.68;81.16;98288.69;112694;1241;22353;-82
2023/03/10 03:33:02;;;;;;;;;;;;;;;2.71;81.22;98279.62;112982;1241;21943;-78
2023/03/10 03:35:36;;;;;;;83.90;71.10;;;;;;;2.67;81.43;98263.30;112516;1236;21954;-77
2023/03/10 03:38:10;;;;;;;79.10;70.80;;;;;;;2.69;81.52;98259.12;113173;1236;21932;-79
2023/03/10 03:40:40;;;;;;;79.70;71.10;;;;;;;2.71;81.48;98250.08;113467;1236;21981;-78
2023/03/10 03:43:11;;;;;;;76.20;67.90;;;;;;;2.76;81.50;98244.23;113142;1236;22007;-79
2023/03/10 03:45:43;;;;;;;75.50;67.50;;;;;;;2.80;81.53;98242.04;113188;1236;21939;-77
2023/03/10 03:48:13;;;;;;;73.20;65.30;;;;;;;2.81;81.51;98235.45;112546;1243;22015;-79
2023/03/10 03:50:47;;;;;;;75.90;67.60;;;;;;;2.85;81.46;98235.30;112219;1241;22866;-79
2023/03/10 03:53:24;;;;;;;77.70;69.10;;;;;;;2.88;81.36;98235.33;112076;1244;23693;-79
2023/03/10 03:55:56;;;;;;;76.30;68.20;;;;;;;2.94;81.39;98231.33;111801;1248;21999;-78
2023/03/10 03:58:25;;;;;;;70.20;62.80;;;;;;;2.99;81.36;98223.38;111149;1255;21965;-79
2023/03/10 04:00:57;;;;;;;66.80;59.70;;;;;;;3.05;81.41;98219.86;111419;1255;21998;-79
2023/03/10 04:03:33;;;;;;;65.00;58.00;;;;;;;3.10;81.43;98218.29;111506;1254;24418;-80
2023/03/10 04:06:09;;;;;;;64.30;57.60;;;;;;;3.16;81.34;98213.09;111277;1255;23602;-79
2023/03/10 04:08:39;;;;;;;59.80;53.00;;;;;;;3.20;81.33;98209.98;111173;1255;22009;-78
2023/03/10 04:11:10;;;;;;;63.00;56.30;;;;;;;3.24;81.39;98205.87;111052;1251;22023;-78
2023/03/10 04:13:40;;;;;;;64.90;57.90;;;;;;;3.28;81.47;98205.51;112218;1239;21973;-78
2023/03/10 04:16:12;;;;;;;57.90;51.60;;;;;;;3.32;81.31;98206.02;113417;1233;21955;-79
2023/03/10 04:18:50;;;;;;;60.90;54.50;;;;;;;3.35;81.29;98200.56;113875;1233;21929;-81
2023/03/10 04:21:23;;;;;;;59.50;53.10;;;;;;;3.40;81.34;98202.61;113472;1232;23695;-79
2023/03/10 04:23:52;;;;;;;59.90;53.50;;;;;;;3.47;81.30;98201.07;113214;1233;23439;-79
2023/03/10 04:26:25;;;;;;;58.30;52.20;;;;;;;3.52;81.34;98198.46;113111;1239;21966;-78
2023/03/10 04:29:00;;;;;;;61.30;54.70;;;;;;;3.60;81.35;98198.27;112986;1239;21971;-78
2023/03/10 04:31:35;;;;;;;59.60;53.10;;;;;;;3.67;81.29;98201.05;112842;1239;21948;-79
2023/03/10 04:34:09;;;;;;;61.60;55.10;;;;;;;3.71;81.20;98200.55;112868;1239;23578;-80
2023/03/10 04:36:40;;;;;;;63.10;56.40;;;;;;;3.76;81.20;98193.95;112994;1239;21979;-79
2023/03/10 04:39:15;;;;;;;70.10;62.80;;;;;;;3.82;81.24;98186.31;112017;1246;21968;-79
2023/03/10 04:41:52;;;;;;;71.40;63.90;;;;;;;3.85;81.20;98177.91;112045;1246;21979;-79
2023/03/10 04:44:30;;;;;;;80.70;72.00;;;;;;;3.86;81.05;98169.98;111940;1246;22737;-80
2023/03/10 04:47:02;;;;;;;79.20;68.40;;;;;;;3.88;81.04;98170.55;111719;1250;21969;-80
2023/03/10 04:49:31;;;;;;;68.80;61.10;;;;;;;3.89;81.12;98162.59;111667;1249;22281;-81
2023/03/10 04:52:03;;;;;;;70.20;58.10;;;;;;;3.91;81.04;98156.48;111942;1245;21930;-79
2023/03/10 04:54:40;;;;;;;66.60;57.30;;;;;;;3.92;81.04;98153.52;111867;1249;22743;-79
2023/03/10 04:57:19;;;;;;;71.50;55.60;;;;;;;3.94;81.11;98153.42;111697;1249;23948;-79
2023/03/10 04:59:50;;;;;;;64.20;52.40;;;;;;;3.97;81.00;98151.39;111417;1251;21966;-79
2023/03/10 05:02:24;;;;;;;59.00;51.90;;;;;;;4.01;81.04;98152.77;111334;1252;21986;-78
2023/03/10 05:04:55;;;;;;;58.70;52.10;;;;;;;4.06;80.95;98158.20;111534;1247;21978;-79
2023/03/10 05:07:24;;;;;;;60.10;53.30;;;;;;;4.08;80.70;98157.08;112051;1247;21977;-79
2023/03/10 05:09:59;;;;;;;60.00;51.70;;;;;;;4.08;80.77;98152.23;111987;1246;21971;-78
2023/03/10 05:12:38;;;;;;;59.10;52.60;;;;;;;4.11;80.85;98145.92;112110;1244;22102;-78
2023/03/10 05:15:10;;;;;;;81.90;69.30;;;;;;;4.14;80.95;98144.59;112188;1248;21936;-79
2023/03/10 05:17:50;;;;;;;;;;;;;;;4.17;80.91;98137.58;112019;1244;23046;-79
2023/03/10 05:20:19;;;;;;;58.30;51.80;;;;;;;4.13;81.06;98129.66;112280;1244;23710;-78
2023/03/10 05:22:48;;;;;;;62.00;55.30;;;;;;;4.16;81.11;98126.91;112552;1238;22012;-79
2023/03/10 05:25:23;;;;;;;65.10;57.60;;;;;;;4.22;81.09;98126.98;113174;1238;21961;-78
2023/03/10 05:28:02;;;;;;;56.40;50.70;;;;;;;4.26;81.02;98122.47;112887;1238;23675;-77
2023/03/10 05:30:31;;;;;;;52.90;47.20;;;;;;;4.32;80.96;98113.42;113185;1238;21971;-80
2023/03/10 05:33:07;;;;;;;46.10;41.10;;;;;;;4.37;81.00;98107.00;113062;1233;21966;-80
2023/03/10 05:35:38;;;;;;;42.60;37.80;;;;;;;4.40;80.97;98096.00;113462;1233;21974;-79
2023/03/10 05:38:10;;;;;;;40.50;36.10;;;;;;;4.44;81.05;98098.23;113303;1233;21948;-80
2023/03/10 05:40:41;;;;;;;39.00;34.90;;;;;;;4.48;80.88;98101.81;113529;1233;21935;-79
2023/03/10 05:43:15;;;;;;;34.10;30.30;;;;;;;4.52;80.86;98101.29;113440;1233;21963;-79
2023/03/10 05:45:57;;;;;;;36.90;32.40;;;;;;;4.54;80.71;98101.31;113665;1233;22665;-79
2023/03/10 05:48:27;;;;;;;37.60;31.60;;;;;;;4.59;80.91;98100.75;113502;1233;22406;-80
2023/03/10 05:51:07;;;;;;;38.70;32.40;;;;;;;4.64;80.86;98096.69;113854;1233;22391;-79
2023/03/10 05:53:40;;;;;;;38.60;33.70;;;;;;;4.70;80.83;98093.84;113254;1233;23000;-79
2023/03/10 05:56:18;;;;;;;36.70;32.50;;;;;;;4.75;80.88;98088.77;113487;1233;21943;-78
2023/03/10 05:58:54;;;;;;;35.20;29.60;;;;;;;4.77;80.81;98086.26;113534;1233;21939;-77
2023/03/10 06:01:29;;;;;;;36.10;30.90;;;;;;;4.81;80.77;98085.88;113213;1232;21950;-76
2023/03/10 06:03:59;;;;;;;33.60;30.10;;;;;;;4.85;80.67;98085.52;113223;1232;21943;-78
2023/03/10 06:06:32;;;;;;;35.20;31.60;;;;;;;4.90;80.82;98089.23;113452;1232;22305;-78
2023/03/10 06:09:01;;;;;;;38.30;33.20;;;;;;;4.96;80.76;98089.63;113363;1232;21935;-77
2023/03/10 06:11:33;;;;;;;37.70;34.00;;;;;;;5.02;80.95;98091.05;113335;1233;22332;-77
2023/03/10 06:14:04;;;;;;;37.50;33.60;;;;;;;5.08;80.87;98092.45;112982;1230;22011;-77
2023/03/10 06:16:32;;;;;;;41.60;37.40;;;;;;;5.15;80.76;98091.42;112961;1238;23416;-77
2023/03/10 06:19:01;;;;;;;38.70;34.70;;;;;;;5.19;80.72;98081.34;112673;1239;21951;-78
2023/03/10 06:21:38;;;;;;;37.30;33.40;;;;;;;5.24;80.71;98077.64;112563;1239;24112;-79
2023/03/10 06:24:07;;;;;;;34.20;30.80;;;;;;;5.30;80.77;98069.05;112802;1238;21955;-76
2023/03/10 06:26:45;;;;;;;34.60;30.40;;;;;;;5.37;80.77;98058.49;112857;1239;23566;-76
2023/03/10 06:29:13;;;;;;;36.30;32.10;;;;;;;5.48;80.76;98054.67;112472;1242;21998;-76
2023/03/10 06:31:42;;;;;;;38.90;34.70;;;;;;;5.55;80.73;98051.50;112414;1238;21968;-78
2023/03/10 06:34:11;;;;;;;42.70;38.10;;;;;;;5.62;80.59;98052.70;113113;1238;21958;-76
2023/03/10 06:36:40;;;;;;;47.10;41.60;;;;;;;5.69;80.59;98045.95;112877;1239;21946;-76
2023/03/10 06:39:12;;;;;;;59.50;49.40;;;;;;;5.79;80.80;98036.39;112267;1243;22473;-77
2023/03/10 06:41:40;;;;;;;52.10;40.00;;;;;;;5.90;80.67;98032.69;112244;1243;21970;-77
2023/03/10 06:44:09;;;;;;;40.20;30.60;;;;;;;5.99;80.68;98037.02;111809;1247;21976;-77
2023/03/10 06:46:38;;;;;;;32.20;24.80;;;;;;;6.08;80.52;98040.18;111721;1244;21973;-75
2023/03/10 06:49:06;;;;;;;26.50;18.90;;;;;;;6.17;80.52;98039.48;112562;1243;23033;-78
2023/03/10 06:51:35;;;;;;;25.60;17.10;;;;;;;6.28;80.46;98038.04;112183;1243;21969;-76
2023/03/10 06:54:04;;;;;;;23.20;15.40;;;;;;;6.40;80.37;98035.79;112266;1243;22281;-77
2023/03/10 06:56:38;;;;;;;23.30;15.00;;;;;;;6.52;80.20;98037.69;111841;1239;22388;-77
2023/03/10 06:59:12;;;;;;;21.50;17.30;;;;;;;6.61;80.07;98041.30;112337;1239;23813;-78
2023/03/10 07:01:53;;;;;;;29.40;19.50;;;;;;;6.67;79.85;98042.70;112920;1232;23671;-79
2023/03/10 07:04:32;;;;;;;23.30;17.00;;;;;;;6.70;79.61;98049.95;113570;1232;22157;-78
2023/03/10 07:07:07;;;;;;;24.20;17.80;;;;;;;6.72;79.38;98056.55;113061;1239;23804;-78
2023/03/10 07:09:40;;;;;;;20.80;16.90;;;;;;;6.73;79.20;98055.44;112791;1239;21940;-79
2023/03/10 07:12:12;;;;;;;31.90;20.10;;;;;;;6.77;79.06;98050.93;113049;1239;22054;-79
2023/03/10 07:14:43;;;;;;;25.10;18.40;;;;;;;6.84;79.15;98046.55;112794;1239;21974;-78
2023/03/10 07:17:11;;;;;;;23.70;16.00;;;;;;;6.92;79.12;98041.73;112808;1239;22260;-79
2023/03/10 07:19:43;;;;;;;23.50;17.10;;;;;;;7.02;79.17;98038.67;112494;1239;21976;-77
2023/03/10 07:22:11;;;;;;;20.40;14.50;;;;;;;7.14;79.12;98040.04;112940;1239;21942;-79
2023/03/10 07:24:42;;;;;;;15.60;9.70;;;;;;;7.25;79.00;98034.21;112630;1233;23688;-81
2023/03/10 07:27:12;;;;;;;15.20;10.60;;;;;;;7.33;78.80;98032.84;113088;1239;22725;-79
2023/03/10 07:29:41;;;;;;;17.90;9.70;;;;;;;7.41;78.72;98032.20;112938;1239;23075;-79
2023/03/10 07:32:11;;;;;;;15.40;9.40;;;;;;;7.48;78.53;98026.02;112191;1243;21956;-81
2023/03/10 07:34:40;;;;;;;17.40;9.10;;;;;;;7.55;78.27;98025.61;112346;1243;21953;-78
2023/03/10 07:37:09;;;;;;;17.00;9.30;;;;;;;7.61;78.12;98018.29;112041;1243;21972;-79
2023/03/10 07:39:41;;;;;;;18.70;11.50;;;;;;;7.68;78.06;98016.13;112376;1243;23578;-78
2023/03/10 07:42:10;;;;;;;20.20;15.00;;;;;;;7.77;78.10;98011.77;112622;1243;22824;-78
2023/03/10 07:44:38;;;;;;;14.40;9.90;;;;;;;7.86;77.69;98011.38;112024;1243;21997;-79
2023/03/10 07:47:09;;;;;;;18.20;10.30;;;;;;;7.90;77.29;98014.25;112484;1243;22943;-79
2023/03/10 07:49:45;;;;;;;15.40;9.60;;;;;;;7.93;77.19;98013.85;112560;1239;24414;-79
2023/03/10 07:52:17;;;;;;;17.80;8.80;;;;;;;7.98;77.01;98011.79;113090;1232;21964;-79
2023/03/10 07:54:49;;;;;;;12.50;8.50;;;;;;;8.03;76.85;98010.66;113062;1239;21969;-79
2023/03/10 07:57:21;;;;;;;16.30;8.00;;;;;;;8.09;76.95;98003.63;112848;1239;21945;-79
2023/03/10 07:59:55;;;;;;;12.00;8.00;;;;;;;8.18;76.95;97998.23;112690;1239;21944;-78
2023/03/10 08:02:24;;;;;;;15.10;9.90;;;;;;;8.27;76.84;97995.86;112860;1239;21970;-78
2023/03/10 08:04:52;;;;;;;14.40;10.20;;;;;;;8.37;76.75;97995.95;112364;1244;23565;-78
2023/03/10 08:07:21;;;;;;;18.50;11.90;;;;;;;8.44;76.50;97992.21;111900;1244;21962;-79
2023/03/10 08:09:51;;;;;;;18.70;13.90;;;;;;;8.50;76.25;97987.11;112686;1239;22071;-80
2023/03/10 08:12:28;;;;;;;18.60;16.00;;;;;;;8.55;75.97;97983.68;113154;1239;23688;-79
2023/03/10 08:15:14;;;;;;;31.50;22.00;;;;;;;8.58;75.86;97982.10;112830;1238;22008;-76
2023/03/10 08:17:43;;;;;;;26.80;19.60;;;;;;;8.64;75.76;97980.46;113021;1239;23678;-77
2023/03/10 08:20:20;;;;;;;26.50;22.10;;;;;;;8.73;75.71;97985.94;112466;1239;23052;-75
2023/03/10 08:22:59;;;;;;;31.90;23.80;;;;;;;8.81;75.35;97984.55;113057;1239;22079;-76
2023/03/10 08:25:30;;;;;;;27.50;22.30;;;;;;;8.88;75.55;97983.52;112555;1239;23052;-75
2023/03/10 08:28:01;;;;;;;28.20;21.20;;;;;;;8.99;75.26;97986.80;112822;1239;22123;-76
2023/03/10 08:30:30;;;;;;;39.10;26.70;;;;;;;9.06;75.03;97991.85;113235;1232;22825;-79
2023/03/10 08:32:58;;;;;;;36.10;29.30;;;;;;;9.10;74.59;97989.29;113570;1233;24101;-78
2023/03/10 08:35:33;;;;;;;42.80;34.90;;;;;;;9.16;74.57;97993.23;113524;1233;21940;-75
2023/03/10 08:38:04;;;;;;;51.40;44.50;;;;;;;9.26;74.70;97989.06;113313;1233;23034;-75
2023/03/10 08:40:33;;;;;;;35.60;30.40;;;;;;;9.42;74.91;97991.08;113500;1233;23671;-75
2023/03/10 08:43:02;;;;;;;33.10;25.80;;;;;;;9.60;74.91;97985.08;113410;1233;23765;-75
2023/03/10 08:45:32;;;;;;;41.30;32.20;;;;;;;9.71;74.11;97979.14;113443;1233;23591;-75
2023/03/10 08:48:08;;;;;;;41.70;31.00;;;;;;;9.73;73.48;97978.10;113312;1234;22976;-77
2023/03/10 08:50:41;;;;;;;38.10;30.80;;;;;;;9.76;73.45;97977.67;113356;1234;21926;-76
2023/03/10 08:53:11;;;;;;;28.30;21.30;;;;;;;9.79;72.93;97981.32;113534;1232;21954;-76
2023/03/10 08:55:44;;;;;;;25.80;19.50;;;;;;;9.76;72.62;97980.98;113415;1233;23316;-77
2023/03/10 08:58:12;;;;;;;23.00;19.20;;;;;;;9.76;72.51;97977.00;113500;1233;22944;-75
2023/03/10 09:00:41;;;;;;;27.40;20.40;;;;;;;9.75;72.25;97974.61;113388;1233;22923;-76
2023/03/10 09:03:10;;;;;;;25.70;18.70;;;;;;;9.76;72.28;97973.91;112539;1239;23765;-75
2023/03/10 09:05:40;;;;;;;25.70;14.20;;;;;;;9.79;72.33;97974.73;112831;1239;21956;-78
2023/03/10 09:08:18;;;;;;;17.10;13.20;;;;;;;9.84;72.32;97970.90;112733;1239;22037;-76
2023/03/10 09:10:48;;;;;;;23.00;17.40;;;;;;;9.95;72.34;97966.10;112906;1239;23706;-76
2023/03/10 09:13:20;;;;;;;28.30;21.30;;;;;;;10.06;72.13;97965.24;111790;1245;23005;-75
2023/03/10 09:15:52;;;;;;;23.80;15.60;;;;;;;10.16;71.67;97968.90;112249;1245;21963;-76
2023/03/10 09:18:21;;;;;;;25.00;18.60;;;;;;;10.24;71.38;97976.98;112002;1245;21953;-77
2023/03/10 09:20:56;;;;;;;18.60;13.20;;;;;;;10.32;71.16;97977.99;111822;1243;21963;-76
2023/03/10 09:23:26;;;;;;;17.80;10.00;;;;;;;10.44;70.92;97981.82;112092;1243;23595;-77
2023/03/10 09:26:03;;;;;;;15.60;9.10;;;;;;;10.59;70.84;97976.17;111854;1248;23703;-78
2023/03/10 09:28:40;;;;;;;14.40;8.00;;;;;;;10.77;70.36;97978.24;112006;1248;22972;-77
2023/03/10 09:31:22;;;;;;;14.60;10.30;;;;;;;10.94;69.75;97974.03;111948;1243;21955;-77
2023/03/10 09:34:01;;;;;;;53.10;35.80;;;;;;;11.00;68.73;97973.38;112091;1243;23015;-76
2023/03/10 09:36:34;;;;;;;32.30;27.00;;;;;;;11.09;68.35;97977.58;111673;1249;21959;-73
2023/03/10 09:39:25;;;;;;;29.40;22.80;;;;;;;11.20;68.11;97978.80;111765;1245;23702;-75
2023/03/10 09:42:35;;;;;;;24.80;19.70;;;;;;;11.40;67.53;97985.77;111889;1252;23442;-79
2023/03/10 09:45:44;;;;;;;15.30;10.40;;;;;;;11.51;66.79;97985.19;112002;1247;21988;-79
2023/03/10 09:49:02;;;;;;;12.60;7.50;;;;;;;11.65;66.40;97984.78;112021;1247;21953;-78
2023/03/10 09:51:40;;;;;;;11.30;6.30;;;;;;;11.78;65.46;97986.19;112173;1247;21980;-81
2023/03/10 09:54:45;;;;;;;10.50;6.80;;;;;;;11.94;65.39;97987.77;111975;1247;23655;-80
2023/03/10 09:57:22;;;;;;;14.00;8.80;;;;;;;12.09;64.73;97987.05;111735;1247;22025;-80
2023/03/10 10:00:01;;;;;;;10.90;6.80;;;;;;;12.18;64.19;97986.86;111787;1247;22463;-78
2023/03/10 10:02:44;;;;;;;8.20;5.20;;;;;;;12.16;63.14;97980.73;112316;1242;23655;-80
2023/03/10 10:05:30;;;;;;;6.00;4.70;;;;;;;12.11;62.79;97977.84;112691;1242;21980;-78
2023/03/10 10:08:21;;;;;;;11.90;6.50;;;;;;;12.07;62.46;97978.16;112430;1242;21973;-78
2023/03/10 10:10:56;;;;;;;22.20;14.50;;;;;;;12.05;62.38;97982.14;112599;1242;21969;-79
2023/03/10 10:13:35;;;;;;;12.50;8.90;;;;;;;12.03;62.20;97978.33;111961;1247;22017;-78
2023/03/10 10:16:40;;;;;;;8.80;6.30;;;;;;;11.98;62.03;97977.30;111954;1247;22465;-78
2023/03/10 10:19:21;;;;;;;11.90;6.30;;;;;;;11.91;62.01;97980.68;112365;1239;21957;-78
2023/03/10 10:22:13;;;;;;;8.90;6.60;;;;;;;11.89;62.14;97985.71;112504;1241;21970;-78
2023/03/10 10:25:12;;;;;;;13.80;8.80;;;;;;;11.88;62.23;97986.08;112946;1239;21977;-79
2023/03/10 10:27:46;;;;;;;22.10;17.20;;;;;;;11.90;62.20;97988.91;112757;1239;21958;-80
2023/03/10 10:30:41;;;;;;;50.00;40.30;;;;;;;11.91;62.01;97988.69;112809;1239;22977;-79
2023/03/10 10:33:15;;;;;;;23.10;16.20;;;;;;;11.86;61.95;97987.84;113745;1233;21974;-80
2023/03/10 10:36:04;;;;;;;28.70;21.60;;;;;;;11.87;62.13;97986.52;113343;1233;22635;-80
2023/03/10 10:38:49;;;;;;;14.60;13.00;;;;;;;11.90;62.21;97982.67;113429;1233;21963;-80
2023/03/10 10:41:39;;;;;;;33.20;26.30;;;;;;;11.93;61.98;97983.98;113443;1233;23063;-78
2023/03/10 10:44:15;;;;;;;21.30;14.80;;;;;;;11.95;61.82;97982.94;113367;1233;21933;-78
2023/03/10 10:46:59;;;;;;;17.30;13.10;;;;;;;11.96;61.99;97981.82;113646;1233;21938;-78
2023/03/10 10:49:40;;;;;;;12.40;8.00;;;;;;;12.02;61.94;97977.86;113406;1233;22709;-77
2023/03/10 10:52:26;;;;;;;9.90;6.80;;;;;;;12.06;61.75;97975.08;112670;1239;21953;-79
2023/03/10 10:55:26;;;;;;;16.10;9.60;;;;;;;12.06;61.44;97970.37;112876;1239;21961;-79
2023/03/10 10:58:05;;;;;;;8.70;6.30;;;;;;;12.03;61.27;97961.17;112598;1238;23044;-79
2023/03/10 11:01:11;;;;;;;18.00;9.30;;;;;;;12.08;61.58;97955.07;112834;1239;21973;-78
2023/03/10 11:03:47;;;;;;;12.50;8.30;;;;;;;12.17;61.40;97954.98;112966;1239;23803;-79
2023/03/10 11:06:33;;;;;;;11.00;6.90;;;;;;;12.31;61.35;97951.30;112656;1239;24469;-78
2023/03/10 11:09:17;;;;;;;11.80;9.20;;;;;;;12.45;61.12;97950.41;112888;1239;21955;-79
2023/03/10 11:12:01;;;;;;;14.20;9.90;;;;;;;12.56;60.64;97949.56;112817;1239;21988;-77
2023/03/10 11:15:00;;;;;;;13.50;10.00;;;;;;;12.60;60.29;97942.76;112920;1239;21978;-78
2023/03/10 11:17:56;;;;;;;19.70;16.30;;;;;;;12.68;60.36;97943.83;112342;1245;21998;-78
2023/03/10 11:20:47;;;;;;;13.50;11.20;;;;;;;12.81;60.15;97931.55;111806;1250;23594;-79
2023/03/10 11:23:34;;;;;;;13.50;11.30;;;;;;;12.92;59.69;97931.15;111662;1250;24124;-79
2023/03/10 11:26:32;;;;;;;13.70;7.20;;;;;;;13.02;59.44;97934.23;111863;1250;21975;-79
2023/03/10 11:29:31;;;;;;;9.40;6.30;;;;;;;13.12;59.30;97934.68;111896;1245;21991;-78
2023/03/10 11:32:34;;;;;;;7.30;5.00;;;;;;;13.19;59.02;97933.20;111824;1251;21963;-77
2023/03/10 11:35:37;;;;;;;9.30;6.50;;;;;;;13.21;58.44;97929.00;111589;1245;21951;-76
2023/03/10 11:38:37;;;;;;;9.10;6.50;;;;;;;13.26;58.46;97928.48;112338;1239;21958;-77
2023/03/10 11:41:25;;;;;;;8.80;6.50;;;;;;;13.34;58.12;97922.61;113324;1239;21978;-78
2023/03/10 11:44:08;;;;;;;8.70;6.90;;;;;;;13.38;57.82;97926.81;112893;1239;21951;-78
2023/03/10 11:46:55;;;;;;;12.70;7.10;;;;;;;13.36;57.39;97928.77;112278;1244;21967;-78
2023/03/10 11:49:37;;;;;;;6.80;5.80;;;;;;;13.27;57.11;97924.64;112208;1239;22074;-77
2023/03/10 11:52:24;;;;;;;10.60;6.30;;;;;;;13.21;57.27;97922.45;112571;1239;22434;-78
2023/03/10 11:55:15;;;;;;;9.50;5.70;;;;;;;13.25;57.50;97917.61;113001;1239;23559;-79
2023/03/10 11:57:55;;;;;;;11.60;8.10;;;;;;;13.33;57.48;97920.60;112463;1239;23541;-77
2023/03/10 12:00:51;;;;;;;8.20;5.80;;;;;;;13.41;57.29;97925.55;112697;1239;21965;-77